Time;durP1;ratioP1;P1;durP2;ratioP2;P2;SDS_P1;SDS_P2;PMS_P1;PMS_P2;Temp;Humidity;BMP_temperature;BMP_pressure;BME280_temperature;BME280_humidity;BME280_pressure;Samples;Min_cycle;Max_cycle;Signal;HPM_P1;HPM_P2
2024/02/10 00:00:24;;;;;;;1.60;1.10;;;11.70;98.20;;;;;;6151654;23;20994;-82
2024/02/10 00:02:57;;;;;;;1.60;1.00;;;11.60;98.20;;;;;;6141721;23;20480;-81
2024/02/10 00:05:28;;;;;;;1.60;1.10;;;11.60;98.20;;;;;;6151659;23;20456;-82
2024/02/10 00:07:56;;;;;;;1.60;1.10;;;11.60;98.20;;;;;;6138263;23;20850;-84
2024/02/10 00:10:29;;;;;;;2.43;1.70;;;11.60;98.20;;;;;;6161191;23;20463;-82
2024/02/10 00:13:00;;;;;;;1.53;1.10;;;11.60;98.20;;;;;;6135881;23;20697;-81
2024/02/10 00:18:47;;;;;;;1.50;1.00;;;11.60;98.20;;;;;;6048062;23;21051;-81
2024/02/10 00:24:39;;;;;;;1.60;1.00;;;11.60;98.20;;;;;;5926827;24;20468;-81
2024/02/10 00:27:08;;;;;;;1.60;1.10;;;11.60;98.20;;;;;;5907983;24;20555;-84
2024/02/10 00:29:37;;;;;;;1.53;1.00;;;11.60;98.20;;;;;;6136639;23;20451;-79
2024/02/10 00:32:09;;;;;;;1.57;1.00;;;11.60;98.20;;;;;;6132897;23;20449;-83
2024/02/10 00:34:58;;;;;;;1.53;1.00;;;11.50;98.20;;;;;;6157688;23;20452;-84
2024/02/10 00:37:32;;;;;;;1.60;1.10;;;11.50;98.20;;;;;;6123579;23;21061;-83
2024/02/10 00:40:01;;;;;;;1.60;1.10;;;11.40;98.20;;;;;;6158706;23;20535;-83
2024/02/10 00:42:31;;;;;;;1.53;1.10;;;11.40;98.20;;;;;;6135876;23;20472;-83
2024/02/10 00:45:09;;;;;;;1.60;1.20;;;11.40;98.20;;;;;;6158151;23;20474;-84
2024/02/10 00:47:40;;;;;;;1.60;1.20;;;11.40;98.20;;;;;;6125864;23;20551;-83
2024/02/10 00:50:07;;;;;;;1.57;1.10;;;11.40;98.20;;;;;;6144917;23;20471;-83
2024/02/10 00:52:37;;;;;;;1.60;1.00;;;11.40;98.20;;;;;;6137181;23;20849;-84
2024/02/10 00:55:04;;;;;;;1.57;1.00;;;11.40;98.20;;;;;;6153430;23;20507;-83
2024/02/10 00:57:32;;;;;;;1.60;1.00;;;11.40;98.20;;;;;;6136849;23;20508;-84
2024/02/10 01:00:02;;;;;;;1.57;1.03;;;11.50;98.20;;;;;;6153057;23;20474;-84
2024/02/10 01:02:30;;;;;;;1.53;1.10;;;11.50;98.20;;;;;;6135498;23;20441;-84
2024/02/10 01:04:56;;;;;;;1.60;1.10;;;11.50;98.20;;;;;;6152397;23;20452;-85
2024/02/10 01:07:24;;;;;;;1.57;1.10;;;11.50;98.20;;;;;;6136358;23;20756;-84
2024/02/10 01:09:51;;;;;;;1.60;1.10;;;11.50;98.20;;;;;;6152051;23;20782;-82
2024/02/10 01:12:18;;;;;;;1.60;1.10;;;11.50;98.20;;;;;;6135834;23;20454;-84
2024/02/10 01:14:46;;;;;;;1.53;1.10;;;11.50;98.20;;;;;;6151728;23;20456;-83
2024/02/10 01:17:13;;;;;;;3.13;2.80;;;11.40;98.20;;;;;;6135975;23;20532;-84
2024/02/10 01:19:49;;;;;;;1.60;1.10;;;11.40;98.20;;;;;;6151860;23;20444;-83
2024/02/10 01:22:16;;;;;;;1.60;1.10;;;11.40;98.20;;;;;;6136517;23;20504;-84
2024/02/10 01:24:45;;;;;;;1.57;1.00;;;11.30;98.20;;;;;;6152446;23;20486;-83
2024/02/10 01:27:16;;;;;;;1.60;1.20;;;11.30;98.20;;;;;;6140646;23;20481;-83
2024/02/10 01:29:44;;;;;;;1.60;1.10;;;11.30;98.20;;;;;;6151609;23;20448;-84
2024/02/10 01:32:12;;;;;;;2.30;2.10;;;11.30;98.20;;;;;;6136842;23;20496;-83
2024/02/10 01:34:39;;;;;;;1.60;1.10;;;11.30;98.20;;;;;;6152216;23;20753;-84
2024/02/10 01:37:07;;;;;;;1.60;1.10;;;11.20;98.20;;;;;;6137208;23;20449;-81
2024/02/10 01:39:34;;;;;;;1.60;1.00;;;11.20;98.20;;;;;;6150914;23;20441;-83
2024/02/10 01:42:01;;;;;;;1.60;1.10;;;11.20;98.20;;;;;;6136008;23;20445;-84
2024/02/10 01:44:28;;;;;;;1.60;1.10;;;11.20;98.20;;;;;;6151670;23;20421;-84
2024/02/10 01:46:55;;;;;;;1.60;1.10;;;11.20;98.20;;;;;;6137729;23;20453;-83
2024/02/10 01:49:24;;;;;;;1.60;1.10;;;11.20;98.20;;;;;;6151354;23;20456;-84
2024/02/10 01:51:51;;;;;;;1.60;1.10;;;11.20;98.20;;;;;;6142281;23;20499;-82
2024/02/10 01:54:17;;;;;;;1.60;1.20;;;11.20;98.20;;;;;;6151472;23;20416;-83
2024/02/10 01:56:45;;;;;;;1.60;1.10;;;11.10;98.20;;;;;;6137885;23;20448;-84
2024/02/10 01:59:13;;;;;;;1.60;1.00;;;11.10;98.20;;;;;;6151537;23;20444;-84
2024/02/10 02:01:48;;;;;;;1.97;1.77;;;11.10;98.20;;;;;;6136751;23;20773;-82
2024/02/10 02:04:15;;;;;;;1.60;1.20;;;11.10;98.20;;;;;;6150179;23;20432;-81
2024/02/10 02:06:44;;;;;;;1.60;1.20;;;11.20;98.20;;;;;;6135880;23;20448;-81
2024/02/10 02:09:12;;;;;;;1.90;1.50;;;11.20;98.20;;;;;;6149298;23;20578;-82
2024/02/10 02:11:49;;;;;;;1.60;1.10;;;11.20;98.20;;;;;;6135618;23;20776;-82
2024/02/10 02:14:16;;;;;;;1.60;1.10;;;11.30;98.20;;;;;;6150008;23;20416;-81
2024/02/10 02:16:46;;;;;;;1.80;1.40;;;11.30;98.20;;;;;;6136177;23;20532;-81
2024/02/10 02:19:13;;;;;;;1.60;1.10;;;11.20;98.20;;;;;;6149776;23;20452;-81
2024/02/10 02:21:44;;;;;;;1.57;1.10;;;11.20;98.20;;;;;;6135081;23;20450;-81
2024/02/10 02:24:12;;;;;;;1.60;1.10;;;11.20;98.20;;;;;;6149144;23;20409;-81
2024/02/10 02:26:41;;;;;;;1.60;1.10;;;11.20;98.20;;;;;;6142021;23;20459;-81
2024/02/10 02:29:08;;;;;;;1.60;1.10;;;11.10;98.20;;;;;;6149902;23;20475;-82
2024/02/10 02:31:37;;;;;;;1.60;1.10;;;11.20;98.20;;;;;;6136716;23;20449;-80
2024/02/10 02:34:04;;;;;;;1.60;1.10;;;11.20;98.20;;;;;;6150021;23;20421;-80
2024/02/10 02:36:32;;;;;;;1.60;1.10;;;11.20;98.20;;;;;;6133908;23;20618;-78
2024/02/10 02:39:00;;;;;;;1.60;1.10;;;11.20;98.20;;;;;;6148666;23;20443;-80
2024/02/10 02:41:28;;;;;;;1.53;1.10;;;11.20;98.20;;;;;;6136784;23;20471;-80
2024/02/10 02:43:55;;;;;;;1.60;1.10;;;11.20;98.20;;;;;;6159891;23;20980;-80
2024/02/10 02:46:23;;;;;;;1.60;1.20;;;11.20;98.20;;;;;;6131191;23;20451;-79
2024/02/10 02:48:52;;;;;;;1.60;1.10;;;11.20;98.20;;;;;;6148900;23;20463;-80
2024/02/10 02:51:20;;;;;;;1.57;1.10;;;11.20;98.20;;;;;;6136152;23;20445;-79
2024/02/10 02:53:48;;;;;;;1.53;1.07;;;11.10;98.20;;;;;;6150113;23;20445;-79
2024/02/10 02:56:15;;;;;;;1.53;1.00;;;11.10;98.20;;;;;;6136395;23;20449;-81
2024/02/10 02:58:43;;;;;;;1.60;1.10;;;11.00;98.20;;;;;;6148226;23;20452;-79
2024/02/10 03:01:10;;;;;;;1.57;1.00;;;11.00;98.20;;;;;;6143748;23;20451;-80
2024/02/10 03:03:39;;;;;;;1.60;1.10;;;11.00;98.20;;;;;;6148077;23;20421;-80
2024/02/10 03:06:06;;;;;;;1.60;1.10;;;10.90;98.20;;;;;;6135947;23;20756;-80
2024/02/10 03:08:35;;;;;;;1.60;1.10;;;10.90;98.20;;;;;;6148783;23;20946;-79
2024/02/10 03:11:04;;;;;;;1.60;1.20;;;10.90;98.20;;;;;;6136064;23;20417;-80
2024/02/10 03:13:32;;;;;;;1.60;1.10;;;10.80;98.20;;;;;;6148470;23;20445;-80
2024/02/10 03:16:00;;;;;;;1.60;1.10;;;10.80;98.20;;;;;;6136383;23;20416;-79
2024/02/10 03:18:27;;;;;;;1.60;1.20;;;10.80;98.20;;;;;;6146925;23;20441;-79
2024/02/10 03:20:54;;;;;;;1.60;1.23;;;10.80;98.20;;;;;;6145369;23;20837;-80
2024/02/10 03:23:21;;;;;;;1.60;1.10;;;10.70;98.20;;;;;;6147958;23;20423;-81
2024/02/10 03:25:49;;;;;;;1.60;1.10;;;10.70;98.20;;;;;;6140881;23;20490;-80
2024/02/10 03:28:16;;;;;;;1.60;1.10;;;10.70;98.20;;;;;;6148300;23;20449;-80
2024/02/10 03:30:43;;;;;;;1.60;1.20;;;10.70;98.20;;;;;;6148533;23;20416;-80
2024/02/10 03:33:11;;;;;;;1.60;1.10;;;10.60;98.20;;;;;;6132682;23;20445;-79
2024/02/10 03:35:38;;;;;;;1.60;1.13;;;10.60;98.20;;;;;;6153263;23;20425;-81
2024/02/10 03:38:07;;;;;;;1.60;1.20;;;10.50;98.20;;;;;;6135905;23;20452;-79
2024/02/10 03:40:34;;;;;;;1.57;1.00;;;10.50;98.20;;;;;;6151716;23;20651;-79
2024/02/10 03:43:01;;;;;;;1.60;1.33;;;10.50;98.20;;;;;;6133454;23;20524;-79
2024/02/10 03:45:33;;;;;;;1.60;1.10;;;10.40;98.20;;;;;;6150892;23;20427;-81
2024/02/10 03:48:03;;;;;;;1.60;1.10;;;10.40;98.20;;;;;;6135355;23;20573;-79
2024/02/10 03:50:32;;;;;;;1.60;1.10;;;10.30;98.20;;;;;;6151060;23;20425;-79
2024/02/10 03:52:59;;;;;;;1.60;1.20;;;10.30;98.20;;;;;;6135276;23;20511;-78
2024/02/10 03:55:26;;;;;;;1.80;1.60;;;10.30;98.20;;;;;;6151940;23;20765;-81
2024/02/10 03:57:53;;;;;;;1.60;1.10;;;10.30;98.20;;;;;;6134944;23;20452;-80
2024/02/10 04:00:25;;;;;;;1.60;1.20;;;10.30;98.20;;;;;;6151180;23;20451;-81
2024/02/10 04:02:52;;;;;;;1.60;1.10;;;10.20;98.20;;;;;;6134585;23;20445;-81
2024/02/10 04:05:18;;;;;;;1.60;1.27;;;10.20;98.20;;;;;;6151645;23;20421;-80
2024/02/10 04:07:49;;;;;;;1.60;1.20;;;10.20;98.20;;;;;;6133732;23;20507;-81
2024/02/10 04:10:16;;;;;;;1.60;1.10;;;10.20;98.20;;;;;;6149839;23;20407;-81
2024/02/10 04:12:43;;;;;;;1.60;1.10;;;10.20;98.20;;;;;;6136179;23;20524;-81
2024/02/10 04:15:11;;;;;;;1.60;1.20;;;10.10;98.20;;;;;;6151224;23;20448;-80
2024/02/10 04:17:38;;;;;;;1.60;1.17;;;10.10;98.20;;;;;;6134960;23;20856;-80
2024/02/10 04:20:07;;;;;;;1.60;1.10;;;10.10;98.20;;;;;;6150400;23;20416;-80
2024/02/10 04:22:34;;;;;;;1.60;1.30;;;10.10;98.20;;;;;;6133616;23;20451;-81
2024/02/10 04:25:02;;;;;;;1.60;1.10;;;10.10;98.20;;;;;;6150801;23;20425;-81
2024/02/10 04:27:29;;;;;;;1.60;1.10;;;10.10;98.20;;;;;;6135700;23;20539;-81
2024/02/10 04:29:55;;;;;;;1.60;1.10;;;10.10;98.20;;;;;;6151206;23;20437;-81
2024/02/10 04:32:22;;;;;;;1.60;1.10;;;10.00;98.20;;;;;;6136094;23;20790;-81
2024/02/10 04:34:49;;;;;;;1.60;1.20;;;10.00;98.20;;;;;;6152425;23;20771;-80
2024/02/10 04:37:19;;;;;;;1.60;1.10;;;10.00;98.20;;;;;;6137189;23;20448;-82
2024/02/10 04:39:46;;;;;;;1.60;1.30;;;10.00;98.20;;;;;;6150649;23;20780;-81
2024/02/10 04:42:14;;;;;;;1.60;1.20;;;10.00;98.20;;;;;;6135215;23;20456;-81
2024/02/10 04:44:41;;;;;;;1.60;1.10;;;10.00;98.20;;;;;;6149076;23;20428;-81
2024/02/10 04:47:09;;;;;;;1.60;1.20;;;10.00;98.20;;;;;;6134986;23;20523;-82
2024/02/10 04:49:37;;;;;;;1.60;1.10;;;9.90;98.20;;;;;;6149968;23;20444;-82
2024/02/10 04:52:04;;;;;;;1.60;1.10;;;9.90;98.20;;;;;;6134991;23;20780;-82
2024/02/10 04:54:31;;;;;;;1.60;1.10;;;9.90;98.20;;;;;;6149927;23;20448;-81
2024/02/10 04:56:58;;;;;;;1.60;1.00;;;9.90;98.20;;;;;;6135674;23;20882;-82
2024/02/10 04:59:26;;;;;;;1.60;1.10;;;9.80;98.20;;;;;;6149931;23;20448;-81
2024/02/10 05:01:54;;;;;;;1.60;1.10;;;9.80;98.20;;;;;;6136170;23;20901;-80
2024/02/10 05:04:21;;;;;;;1.60;1.10;;;9.80;98.20;;;;;;6148605;23;20432;-81
2024/02/10 05:06:49;;;;;;;1.60;1.10;;;9.80;98.20;;;;;;6136216;23;20448;-81
2024/02/10 05:09:17;;;;;;;1.60;1.10;;;9.80;98.20;;;;;;6148508;23;20440;-81
2024/02/10 05:11:44;;;;;;;1.60;1.10;;;9.80;98.20;;;;;;6137151;23;20448;-82
2024/02/10 05:14:11;;;;;;;1.60;1.10;;;9.80;98.20;;;;;;6149286;23;20444;-81
2024/02/10 05:16:40;;;;;;;1.60;1.20;;;9.70;98.20;;;;;;6136960;23;20483;-81
2024/02/10 05:19:06;;;;;;;1.60;1.20;;;9.70;98.20;;;;;;6148178;23;20453;-81
2024/02/10 05:21:35;;;;;;;1.60;1.10;;;9.70;98.20;;;;;;6136301;23;20580;-82
2024/02/10 05:24:05;;;;;;;1.60;1.10;;;9.70;98.20;;;;;;6151273;23;20417;-81
2024/02/10 05:26:34;;;;;;;1.60;1.20;;;9.70;98.20;;;;;;6136334;23;20455;-82
2024/02/10 05:29:06;;;;;;;1.60;1.10;;;9.70;98.20;;;;;;6149773;23;20536;-80
2024/02/10 05:31:36;;;;;;;1.60;1.10;;;9.70;98.20;;;;;;6134816;23;20978;-81
2024/02/10 05:34:04;;;;;;;2.23;2.03;;;9.70;98.20;;;;;;6151037;23;20503;-81
2024/02/10 05:36:34;;;;;;;1.60;1.10;;;9.70;98.20;;;;;;6136250;23;21008;-81
2024/02/10 05:39:03;;;;;;;1.60;1.10;;;9.70;98.20;;;;;;6150988;23;20536;-81
2024/02/10 05:41:29;;;;;;;1.60;1.20;;;9.70;98.20;;;;;;6136921;23;20449;-82
2024/02/10 05:43:56;;;;;;;1.60;1.20;;;9.70;98.20;;;;;;6149301;23;20571;-82
2024/02/10 05:46:23;;;;;;;1.60;1.13;;;9.70;98.20;;;;;;6136762;23;20444;-81
2024/02/10 05:48:50;;;;;;;1.60;1.10;;;9.60;98.20;;;;;;6149386;23;20979;-81
2024/02/10 05:51:18;;;;;;;1.60;1.20;;;9.60;98.20;;;;;;6135723;23;20507;-81
2024/02/10 05:53:46;;;;;;;1.60;1.20;;;9.60;98.20;;;;;;6150395;23;20453;-80
2024/02/10 05:56:15;;;;;;;1.60;1.10;;;9.60;98.20;;;;;;6137689;23;20449;-81
2024/02/10 05:58:42;;;;;;;1.60;1.30;;;9.50;98.20;;;;;;6149747;23;20452;-82
2024/02/10 06:01:10;;;;;;;1.63;1.23;;;9.50;98.20;;;;;;6135917;23;20449;-81
2024/02/10 06:03:37;;;;;;;1.60;1.10;;;9.50;98.20;;;;;;6150175;23;20793;-81
2024/02/10 06:06:08;;;;;;;2.83;2.43;;;9.50;98.20;;;;;;6137752;23;20416;-81
2024/02/10 06:08:36;;;;;;;1.60;1.10;;;9.50;98.20;;;;;;6148862;23;20464;-81
2024/02/10 06:11:03;;;;;;;1.60;1.10;;;9.50;98.20;;;;;;6135837;23;20424;-81
2024/02/10 06:13:32;;;;;;;1.60;1.10;;;9.40;98.20;;;;;;6147790;23;20487;-81
2024/02/10 06:15:58;;;;;;;1.60;1.17;;;9.40;98.20;;;;;;6136053;23;20452;-81
2024/02/10 06:18:27;;;;;;;1.60;1.20;;;9.40;98.20;;;;;;6149144;23;20446;-82
2024/02/10 06:20:54;;;;;;;1.60;1.10;;;9.40;98.20;;;;;;6136063;23;20425;-82
2024/02/10 06:23:25;;;;;;;1.60;1.20;;;9.40;98.20;;;;;;6148250;23;20418;-81
2024/02/10 06:25:54;;;;;;;1.60;1.20;;;9.40;98.20;;;;;;6136649;23;20409;-81
2024/02/10 06:28:21;;;;;;;1.60;1.10;;;9.40;98.20;;;;;;6148676;23;20841;-81
2024/02/10 06:30:49;;;;;;;1.60;1.20;;;9.40;98.20;;;;;;6136470;23;20417;-81
2024/02/10 06:33:16;;;;;;;1.60;1.10;;;9.40;98.20;;;;;;6148074;23;20471;-79
2024/02/10 06:35:47;;;;;;;1.60;1.10;;;9.40;98.20;;;;;;6151668;23;20424;-80
2024/02/10 06:38:14;;;;;;;1.60;1.10;;;9.40;98.20;;;;;;6104852;23;20432;-80
2024/02/10 06:40:41;;;;;;;1.60;1.20;;;9.40;98.20;;;;;;6150541;23;20416;-79
2024/02/10 06:43:12;;;;;;;1.60;1.20;;;9.40;98.20;;;;;;6133700;23;20447;-82
2024/02/10 06:45:39;;;;;;;1.60;1.10;;;9.40;98.20;;;;;;6151421;23;20401;-80
2024/02/10 06:48:07;;;;;;;1.70;1.50;;;9.40;98.20;;;;;;6133662;23;20527;-80
2024/02/10 06:50:35;;;;;;;1.60;1.10;;;9.40;98.20;;;;;;6150169;23;20428;-82
2024/02/10 06:53:02;;;;;;;1.60;1.10;;;9.40;98.20;;;;;;6134294;23;20818;-79
2024/02/10 06:55:29;;;;;;;1.60;1.10;;;9.40;98.20;;;;;;6152166;23;20421;-81
2024/02/10 06:57:56;;;;;;;1.60;1.17;;;9.40;98.20;;;;;;6134236;23;20448;-80
2024/02/10 07:00:24;;;;;;;1.67;1.30;;;9.40;98.20;;;;;;6151175;23;20491;-81
2024/02/10 07:02:53;;;;;;;1.60;1.10;;;9.40;98.20;;;;;;6134769;23;20764;-81
2024/02/10 07:05:22;;;;;;;1.60;1.10;;;9.40;98.20;;;;;;6150894;23;20435;-80
2024/02/10 07:07:50;;;;;;;1.60;1.20;;;9.40;98.20;;;;;;6135661;23;20884;-80
2024/02/10 07:10:18;;;;;;;1.60;1.10;;;9.40;98.20;;;;;;6153171;23;20416;-79
2024/02/10 07:12:46;;;;;;;1.60;1.20;;;9.40;98.20;;;;;;6136360;23;20491;-81
2024/02/10 07:15:17;;;;;;;2.73;2.07;;;9.50;98.20;;;;;;6152846;23;21006;-81
2024/02/10 07:17:49;;;;;;;1.60;1.20;;;9.50;98.20;;;;;;6137149;23;20454;-81
2024/02/10 07:20:18;;;;;;;1.63;1.20;;;9.50;98.20;;;;;;6153287;23;21013;-81
2024/02/10 07:22:49;;;;;;;1.60;1.10;;;9.50;98.20;;;;;;6135991;23;20857;-81
2024/02/10 07:25:16;;;;;;;1.60;1.27;;;9.50;98.20;;;;;;6152689;23;20397;-79
2024/02/10 07:27:45;;;;;;;1.60;1.20;;;9.50;98.20;;;;;;6137414;23;20500;-81
2024/02/10 07:30:12;;;;;;;1.60;1.20;;;9.50;98.20;;;;;;6154215;23;20423;-79
2024/02/10 07:32:39;;;;;;;1.60;1.10;;;9.60;98.20;;;;;;6136267;23;20644;-80
2024/02/10 07:35:08;;;;;;;1.60;1.10;;;9.60;98.20;;;;;;6153868;23;20445;-80
2024/02/10 07:37:35;;;;;;;1.60;1.20;;;9.60;98.20;;;;;;6138040;23;20483;-83
2024/02/10 07:40:03;;;;;;;1.70;1.43;;;9.70;98.20;;;;;;6152007;23;20965;-84
2024/02/10 07:42:30;;;;;;;1.60;1.20;;;9.70;98.20;;;;;;6136693;23;20831;-79
2024/02/10 07:44:58;;;;;;;1.60;1.10;;;9.80;98.20;;;;;;6149946;23;20997;-79
2024/02/10 07:47:26;;;;;;;1.60;1.10;;;9.80;98.20;;;;;;6135976;23;20452;-80
2024/02/10 07:49:53;;;;;;;1.70;1.20;;;9.90;98.20;;;;;;6149807;23;20673;-81
2024/02/10 07:52:21;;;;;;;2.47;2.27;;;9.90;98.20;;;;;;6135495;23;20507;-81
2024/02/10 07:54:49;;;;;;;1.60;1.10;;;10.00;98.20;;;;;;6151932;23;20445;-80
2024/02/10 07:57:19;;;;;;;1.60;1.20;;;10.00;98.20;;;;;;6137540;23;20455;-80
2024/02/10 07:59:48;;;;;;;1.60;1.00;;;10.10;98.20;;;;;;6152308;23;20444;-81
2024/02/10 08:02:16;;;;;;;1.60;1.07;;;10.20;98.20;;;;;;6155004;23;20458;-83
2024/02/10 08:04:43;;;;;;;1.60;1.10;;;10.30;98.20;;;;;;6192301;23;20801;-81
2024/02/10 08:07:11;;;;;;;1.60;1.10;;;10.40;98.20;;;;;;6170779;23;20540;-82
2024/02/10 08:09:49;;;;;;;1.60;1.10;;;10.40;98.20;;;;;;6187489;23;20447;-82
2024/02/10 08:12:17;;;;;;;1.60;1.07;;;10.50;98.20;;;;;;6172046;23;20451;-82
2024/02/10 08:17:46;;;;;;;1.60;1.10;;;10.60;98.20;;;;;;6155309;23;20444;-82
2024/02/10 08:21:07;;;;;;;1.60;1.10;;;10.70;98.20;;;;;;6185662;23;20420;-81
2024/02/10 08:24:31;;;;;;;1.60;1.07;;;10.70;98.20;;;;;;5908995;24;20467;-81
2024/02/10 08:27:03;;;;;;;1.60;1.00;;;10.70;98.20;;;;;;5863149;24;20736;-82
2024/02/10 08:29:39;;;;;;;1.80;1.30;;;10.80;98.20;;;;;;5933092;24;20427;-84
2024/02/10 08:32:08;;;;;;;1.60;1.10;;;10.80;98.20;;;;;;5915885;24;20869;-82
2024/02/10 08:34:38;;;;;;;1.60;1.10;;;10.80;98.20;;;;;;5977910;23;20783;-82
2024/02/10 08:37:09;;;;;;;1.60;1.10;;;10.90;98.20;;;;;;6028197;23;20543;-82
2024/02/10 08:39:37;;;;;;;1.60;1.20;;;10.90;98.20;;;;;;6046737;23;20432;-81
2024/02/10 08:42:05;;;;;;;1.60;1.20;;;11.00;98.20;;;;;;6173890;23;20888;-83
2024/02/10 08:44:35;;;;;;;1.70;1.40;;;11.00;98.20;;;;;;6184324;23;20419;-83
2024/02/10 08:47:20;;;;;;;1.60;1.10;;;11.00;98.20;;;;;;6171921;23;20479;-82
2024/02/10 08:49:50;;;;;;;1.70;1.53;;;11.00;98.20;;;;;;6191542;23;20396;-81
2024/02/10 08:55:26;;;;;;;1.60;1.10;;;11.00;98.20;;;;;;6185467;23;20471;-82
2024/02/10 08:58:05;;;;;;;1.60;1.10;;;11.10;98.20;;;;;;6168063;23;20498;-83
2024/02/10 09:00:32;;;;;;;1.60;1.10;;;11.10;98.20;;;;;;6194669;23;20484;-83
2024/02/10 09:03:04;;;;;;;1.60;1.07;;;11.10;98.20;;;;;;6162897;23;20461;-82
2024/02/10 09:05:34;;;;;;;1.60;1.03;;;11.20;98.20;;;;;;6168468;23;20421;-80
2024/02/10 09:08:10;;;;;;;1.60;1.10;;;11.20;98.20;;;;;;6171859;23;20451;-83
2024/02/10 09:13:28;;;;;;;1.60;1.10;;;11.30;98.20;;;;;;6162716;23;20458;-82
2024/02/10 09:15:55;;;;;;;1.60;1.00;;;11.30;98.20;;;;;;6203536;23;20415;-80
2024/02/10 09:18:28;;;;;;;1.60;1.10;;;11.40;98.20;;;;;;6196532;23;20485;-80
2024/02/10 09:21:01;;;;;;;1.60;1.10;;;11.50;98.20;;;;;;6197377;23;20423;-81
2024/02/10 09:23:31;;;;;;;1.60;1.10;;;11.60;98.20;;;;;;6197355;23;20429;-82
2024/02/10 09:26:56;;;;;;;1.60;1.00;;;11.70;98.20;;;;;;6225251;23;20505;-82
2024/02/10 09:29:26;;;;;;;1.60;1.00;;;11.80;98.20;;;;;;6224540;23;20467;-82
2024/02/10 09:32:16;;;;;;;1.60;1.10;;;11.80;98.20;;;;;;6203073;23;20908;-84
2024/02/10 09:34:52;;;;;;;1.60;1.10;;;11.90;98.20;;;;;;6226294;23;20475;-82
2024/02/10 09:37:29;;;;;;;1.60;1.10;;;12.00;98.20;;;;;;6219965;23;20505;-84
2024/02/10 09:40:41;;;;;;;1.60;1.10;;;12.00;98.20;;;;;;6228157;23;20438;-83
2024/02/10 09:43:48;;;;;;;1.60;1.00;;;12.10;98.20;;;;;;6090769;23;20461;-83
2024/02/10 09:55:36;;;;;;;1.60;1.00;;;12.20;98.20;;;;;;6210736;23;20454;-82
2024/02/10 09:58:46;;;;;;;1.60;1.10;;;12.20;98.20;;;;;;6176294;23;20432;-83
2024/02/10 10:01:27;;;;;;;1.60;1.10;;;12.30;98.20;;;;;;6130178;23;20522;-83
2024/02/10 10:04:26;;;;;;;1.57;1.00;;;12.30;98.20;;;;;;6207367;23;20423;-81
2024/02/10 10:07:09;;;;;;;1.60;1.10;;;12.40;98.20;;;;;;6184366;23;20444;-82
2024/02/10 10:09:38;;;;;;;1.67;1.30;;;12.40;98.20;;;;;;6217361;23;20419;-83
2024/02/10 10:12:10;;;;;;;1.60;1.00;;;12.50;98.20;;;;;;6187890;23;20475;-84
2024/02/10 10:14:40;;;;;;;1.60;1.10;;;12.60;98.20;;;;;;6216524;23;20447;-83
2024/02/10 10:17:13;;;;;;;1.80;1.53;;;12.70;98.20;;;;;;6185637;23;20506;-82
2024/02/10 10:19:40;;;;;;;1.60;1.10;;;12.70;98.20;;;;;;6206736;23;20948;-80
2024/02/10 10:22:08;;;;;;;1.60;1.10;;;12.70;98.20;;;;;;6181159;23;20490;-82
2024/02/10 10:24:43;;;;;;;1.60;1.10;;;12.70;98.20;;;;;;6213319;23;20419;-81
2024/02/10 10:27:11;;;;;;;1.60;1.00;;;12.80;98.20;;;;;;6182262;23;20973;-80
2024/02/10 10:29:38;;;;;;;1.60;1.10;;;12.90;98.20;;;;;;6204157;23;20447;-80
2024/02/10 10:32:10;;;;;;;1.60;1.07;;;13.00;98.20;;;;;;6177717;23;20479;-81
2024/02/10 10:34:38;;;;;;;1.60;1.00;;;13.10;98.20;;;;;;6203459;23;20431;-82
2024/02/10 10:37:05;;;;;;;1.60;1.10;;;13.20;98.20;;;;;;6178595;23;21081;-83
2024/02/10 10:39:34;;;;;;;1.60;1.07;;;13.20;98.20;;;;;;6211944;23;20528;-81
2024/02/10 10:42:07;;;;;;;1.60;1.00;;;13.30;98.20;;;;;;6177632;23;20463;-81
2024/02/10 10:44:36;;;;;;;1.60;1.00;;;13.30;98.20;;;;;;6202033;23;20848;-80
2024/02/10 10:47:04;;;;;;;1.60;1.00;;;13.50;98.20;;;;;;6178070;23;20471;-81
2024/02/10 10:49:32;;;;;;;1.80;1.47;;;13.60;98.20;;;;;;6210253;23;20429;-80
2024/02/10 10:52:02;;;;;;;1.60;1.00;;;13.70;98.20;;;;;;6178819;23;20451;-80
2024/02/10 10:54:33;;;;;;;1.60;1.00;;;13.70;98.20;;;;;;6200388;23;20676;-83
2024/02/10 10:57:02;;;;;;;1.60;1.10;;;13.80;98.20;;;;;;6178716;23;20522;-81
2024/02/10 10:59:35;;;;;;;1.60;1.00;;;14.00;98.20;;;;;;6220236;23;20419;-83
2024/02/10 11:02:04;;;;;;;1.60;1.00;;;14.10;98.20;;;;;;6191936;23;20455;-82
2024/02/10 11:04:38;;;;;;;1.60;1.10;;;14.10;98.20;;;;;;6208254;23;20477;-81
2024/02/10 11:07:08;;;;;;;1.60;1.00;;;14.10;98.20;;;;;;6192832;23;20444;-80
2024/02/10 11:09:45;;;;;;;1.60;1.00;;;14.20;98.20;;;;;;6209959;23;20399;-79
2024/02/10 11:12:12;;;;;;;1.60;1.00;;;14.20;98.20;;;;;;6175112;23;20543;-80
2024/02/10 11:14:51;;;;;;;1.60;1.00;;;14.30;98.20;;;;;;6215419;23;20959;-80
2024/02/10 11:17:20;;;;;;;1.60;1.00;;;14.20;98.20;;;;;;6183159;23;21302;-80
2024/02/10 11:20:04;;;;;;;1.60;1.00;;;14.20;98.20;;;;;;6211176;23;20419;-80
2024/02/10 11:22:35;;;;;;;1.60;1.00;;;14.20;98.20;;;;;;6178444;23;20959;-81
2024/02/10 11:25:07;;;;;;;1.60;0.97;;;14.30;98.20;;;;;;6215505;23;20796;-81
2024/02/10 11:33:22;;;;;;;1.60;1.00;;;14.10;98.20;;;;;;6212692;23;20459;-80
2024/02/10 11:36:12;;;;;;;1.60;1.10;;;14.10;98.20;;;;;;6212537;23;21124;-81
2024/02/10 11:38:39;;;;;;;1.60;1.00;;;14.10;98.20;;;;;;6206269;23;20422;-81
2024/02/10 11:41:08;;;;;;;1.60;1.00;;;14.10;98.20;;;;;;6198377;23;21028;-81
2024/02/10 11:43:36;;;;;;;1.60;1.00;;;14.10;98.20;;;;;;6203893;23;20422;-81
2024/02/10 11:46:08;;;;;;;1.60;1.00;;;14.10;98.20;;;;;;6199407;23;20421;-82
2024/02/10 11:48:37;;;;;;;1.60;1.00;;;14.20;98.20;;;;;;6200847;23;20427;-81
2024/02/10 11:51:08;;;;;;;1.60;1.00;;;14.20;98.20;;;;;;6195194;23;20967;-82
2024/02/10 11:53:35;;;;;;;1.60;1.03;;;14.30;98.20;;;;;;6192660;23;20423;-82
2024/02/10 11:56:05;;;;;;;1.70;1.20;;;14.30;98.20;;;;;;6207812;23;20763;-82
2024/02/10 11:58:33;;;;;;;1.60;0.93;;;14.40;98.20;;;;;;6192224;23;20415;-82
2024/02/10 12:01:00;;;;;;;1.60;1.00;;;14.40;98.20;;;;;;6195228;23;20561;-82
2024/02/10 12:03:30;;;;;;;1.60;1.00;;;14.40;98.20;;;;;;6191605;23;20599;-82
2024/02/10 12:06:02;;;;;;;1.60;1.00;;;14.50;98.20;;;;;;6197333;23;20457;-82
2024/02/10 12:08:30;;;;;;;1.60;1.00;;;14.50;98.20;;;;;;6202191;23;20426;-82
2024/02/10 12:10:57;;;;;;;1.63;1.00;;;14.60;98.20;;;;;;6199641;23;20569;-82
2024/02/10 12:13:25;;;;;;;1.60;1.00;;;14.60;98.20;;;;;;6191677;23;20423;-82
2024/02/10 12:16:00;;;;;;;1.60;1.00;;;14.70;98.20;;;;;;6198971;23;20477;-83
2024/02/10 12:18:28;;;;;;;1.60;1.10;;;14.80;98.20;;;;;;6202496;23;20517;-82
2024/02/10 12:21:04;;;;;;;1.60;1.10;;;14.80;98.20;;;;;;6215990;23;20437;-82
2024/02/10 12:23:32;;;;;;;1.63;1.10;;;14.70;98.20;;;;;;6217441;23;20410;-82
2024/02/10 12:26:01;;;;;;;2.30;1.57;;;14.70;98.20;;;;;;6210845;23;20415;-81
2024/02/10 12:28:29;;;;;;;1.60;1.00;;;14.70;98.20;;;;;;6196437;23;20442;-81
2024/02/10 12:30:56;;;;;;;1.60;1.00;;;14.60;98.20;;;;;;6191597;23;20543;-82
2024/02/10 12:33:24;;;;;;;1.60;1.00;;;14.60;98.20;;;;;;6195382;23;20822;-84
2024/02/10 12:35:53;;;;;;;1.70;1.23;;;14.50;98.20;;;;;;6196140;23;20807;-82
2024/02/10 12:38:27;;;;;;;1.60;1.00;;;14.50;98.20;;;;;;6186940;23;20477;-80
2024/02/10 12:40:53;;;;;;;1.60;0.97;;;14.50;98.20;;;;;;6206272;23;20437;-83
2024/02/10 12:43:23;;;;;;;1.60;1.00;;;14.50;98.20;;;;;;6189033;23;20423;-84
2024/02/10 12:45:50;;;;;;;1.60;1.00;;;14.40;98.20;;;;;;6205410;23;20441;-81
2024/02/10 12:48:17;;;;;;;1.60;1.00;;;14.30;98.20;;;;;;6187828;23;20459;-81
2024/02/10 12:50:47;;;;;;;1.60;1.00;;;14.20;98.20;;;;;;6220639;23;20489;-84
2024/02/10 12:53:14;;;;;;;1.60;1.00;;;14.20;98.20;;;;;;6168725;23;20476;-82
2024/02/10 12:55:44;;;;;;;1.60;1.00;;;14.20;98.20;;;;;;6220591;23;20453;-84
2024/02/10 12:58:12;;;;;;;1.60;1.00;;;14.20;98.20;;;;;;6180985;23;20513;-83
2024/02/10 13:00:47;;;;;;;1.60;1.00;;;14.20;98.20;;;;;;6226632;23;20427;-82
2024/02/10 13:03:19;;;;;;;1.60;1.10;;;14.10;98.20;;;;;;6173181;23;20435;-83
2024/02/10 13:05:46;;;;;;;1.60;1.00;;;14.10;98.20;;;;;;6210975;23;20931;-83
2024/02/10 13:08:15;;;;;;;1.60;0.90;;;14.10;98.20;;;;;;6171633;23;20828;-83
2024/02/10 13:10:45;;;;;;;1.60;1.10;;;14.10;98.20;;;;;;6213729;23;20498;-83
2024/02/10 13:13:12;;;;;;;1.60;1.00;;;14.10;98.20;;;;;;6170578;23;20525;-84
2024/02/10 13:15:43;;;;;;;1.60;1.00;;;14.10;98.20;;;;;;6217475;23;20465;-82
2024/02/10 13:18:10;;;;;;;1.83;1.63;;;14.10;98.20;;;;;;6172587;23;20529;-83
2024/02/10 13:20:43;;;;;;;2.73;2.53;;;14.10;98.20;;;;;;6222414;23;20415;-85
2024/02/10 13:23:19;;;;;;;1.60;1.10;;;14.10;98.20;;;;;;6177557;23;20522;-84
2024/02/10 13:25:49;;;;;;;1.50;1.00;;;14.10;98.20;;;;;;6226818;23;20486;-81
2024/02/10 13:28:16;;;;;;;1.60;1.03;;;14.10;98.20;;;;;;6167740;23;20928;-82
2024/02/10 13:30:44;;;;;;;1.60;1.00;;;14.00;98.20;;;;;;6207192;23;20537;-82
2024/02/10 13:33:11;;;;;;;1.60;1.07;;;14.00;98.20;;;;;;6162170;23;20454;-81
2024/02/10 13:35:40;;;;;;;1.60;1.00;;;14.00;98.20;;;;;;6203860;23;20985;-82